You are not logged in, Click here to log in
ICAO: SBRJ Country: 巴西聯邦共和國舊都、里約熱內盧州首府、第二大城市里約熱內盧
Latitude: -22.9105 Longitude: -43.1631
Total Arrivals: 5 Total Departures: 4
Latest Arrival: JJ3932 (SBSP-SBRJ)Stone. Chang Latest Departure: AD57982 (SBRJ-SBLO)Stone. Chang
Scenery:
METAR : SBRJ 210700Z 17008KT 9999 BKN015 OVC030 18/18 Q1022

聖杜蒙特機場SDU